Time;durP1;ratioP1;P1;durP2;ratioP2;P2;SDS_P1;SDS_P2;PMS_P1;PMS_P2;Temp;Humidity;BMP_temperature;BMP_pressure;BME280_temperature;BME280_humidity;BME280_pressure;Samples;Min_cycle;Max_cycle;Signal;HPM_P1;HPM_P2
2022/06/22 00:00:36;;;;;;;7.50;6.80;;;16.90;1.00;;;;;;6328852;27;20741;-56
2022/06/22 00:03:40;;;;;;;6.50;6.00;;;16.90;1.00;;;;;;6320718;28;20232;-56
2022/06/22 00:06:52;;;;;;;5.30;4.67;;;16.90;1.00;;;;;;6298041;27;20590;-54
2022/06/22 00:09:59;;;;;;;4.07;3.70;;;16.90;1.00;;;;;;6312832;28;20245;-55
2022/06/22 00:13:17;;;;;;;3.80;3.60;;;16.90;1.00;;;;;;6320104;28;20613;-54
2022/06/22 00:16:25;;;;;;;3.80;3.60;;;16.90;1.00;;;;;;6315507;28;20237;-55
2022/06/22 00:19:32;;;;;;;3.70;3.50;;;16.90;1.00;;;;;;6306929;28;20277;-55
2022/06/22 00:22:48;;;;;;;3.20;3.10;;;16.90;1.00;;;;;;6304179;28;20240;-58
2022/06/22 00:25:58;;;;;;;3.30;3.10;;;16.80;1.00;;;;;;6315799;28;20286;-54
2022/06/22 00:29:20;;;;;;;3.40;3.30;;;16.80;1.00;;;;;;6306248;28;20308;-54
2022/06/22 00:32:27;;;;;;;3.40;3.30;;;16.80;1.00;;;;;;6309678;28;20231;-56
2022/06/22 00:35:56;;;;;;;4.27;3.33;;;16.70;1.00;;;;;;6332351;28;20256;-56
2022/06/22 00:39:16;;;;;;;2.97;2.87;;;16.70;1.00;;;;;;6333243;27;20232;-56
2022/06/22 00:42:33;;;;;;;3.20;3.00;;;16.70;1.00;;;;;;6324170;28;20324;-55
2022/06/22 00:45:36;;;;;;;2.90;2.80;;;16.60;1.00;;;;;;6307441;28;20239;-56
2022/06/22 00:48:39;;;;;;;2.80;2.70;;;16.60;1.00;;;;;;6305879;28;20236;-55
2022/06/22 00:51:44;;;;;;;2.33;2.33;;;16.50;1.00;;;;;;6303907;28;20232;-56
2022/06/22 00:54:48;;;;;;;2.60;2.50;;;16.60;1.00;;;;;;6306915;28;20701;-55
2022/06/22 00:57:59;;;;;;;2.90;2.80;;;16.50;1.00;;;;;;6320368;28;20331;-54
2022/06/22 01:01:07;;;;;;;2.57;2.47;;;16.50;1.00;;;;;;6312838;28;20319;-56
2022/06/22 01:04:18;;;;;;;2.70;2.53;;;16.50;1.00;;;;;;6326493;28;20231;-54
2022/06/22 01:07:29;;;;;;;3.00;2.63;;;16.50;1.00;;;;;;6328437;28;20239;-56
2022/06/22 01:10:38;;;;;;;2.67;2.57;;;16.40;1.00;;;;;;6332406;28;20242;-54
2022/06/22 01:13:47;;;;;;;3.20;3.00;;;16.40;1.00;;;;;;6288726;28;20823;-55
2022/06/22 01:16:56;;;;;;;3.40;3.13;;;16.50;1.00;;;;;;6314074;28;20699;-55
2022/06/22 01:20:09;;;;;;;3.67;3.47;;;16.40;1.00;;;;;;6338872;28;20367;-56
2022/06/22 01:23:41;;;;;;;3.37;3.27;;;16.40;1.00;;;;;;6355022;28;20256;-56
2022/06/22 01:27:14;;;;;;;3.30;3.10;;;16.40;1.00;;;;;;6337289;28;20266;-58
2022/06/22 01:30:28;;;;;;;2.97;2.90;;;16.30;1.00;;;;;;6333011;28;20811;-59
2022/06/22 01:33:33;;;;;;;2.90;2.90;;;16.30;1.00;;;;;;6334751;28;20236;-56
2022/06/22 01:36:40;;;;;;;3.00;2.90;;;16.30;1.00;;;;;;6325303;28;20235;-55
2022/06/22 01:39:43;;;;;;;2.93;2.83;;;16.20;1.00;;;;;;6330836;28;20236;-57
2022/06/22 01:42:52;;;;;;;2.60;2.60;;;16.20;1.00;;;;;;6325379;28;20233;-55
2022/06/22 01:46:03;;;;;;;3.20;3.10;;;16.20;1.00;;;;;;6306565;28;20268;-56
2022/06/22 01:49:12;;;;;;;4.10;3.27;;;16.10;1.00;;;;;;6305633;28;20432;-56
2022/06/22 01:52:22;;;;;;;3.00;2.90;;;16.10;1.00;;;;;;6306630;28;20239;-59
2022/06/22 01:55:33;;;;;;;3.20;3.10;;;16.10;1.00;;;;;;6311153;28;20305;-56
2022/06/22 01:58:46;;;;;;;3.07;2.97;;;16.00;1.00;;;;;;6327918;28;20708;-55
2022/06/22 02:02:08;;;;;;;3.43;3.23;;;15.90;1.00;;;;;;6309815;28;20647;-56
2022/06/22 02:05:20;;;;;;;3.07;2.87;;;15.90;1.00;;;;;;6338095;27;20281;-56
2022/06/22 02:08:28;;;;;;;3.33;3.10;;;15.90;1.00;;;;;;6320193;28;20378;-54
2022/06/22 02:11:38;;;;;;;3.73;3.40;;;15.80;1.00;;;;;;6310886;28;20570;-56
2022/06/22 02:14:45;;;;;;;3.40;3.20;;;15.80;1.00;;;;;;6309845;28;20248;-56
2022/06/22 02:17:51;;;;;;;3.67;3.33;;;15.80;1.00;;;;;;6309743;28;20531;-55
2022/06/22 02:20:55;;;;;;;3.00;2.90;;;15.70;1.00;;;;;;6309788;28;20689;-55
2022/06/22 02:24:03;;;;;;;2.87;2.77;;;15.70;1.00;;;;;;6307791;28;20591;-55
2022/06/22 02:27:09;;;;;;;2.93;2.93;;;15.70;1.00;;;;;;6308869;28;20854;-53
2022/06/22 02:30:12;;;;;;;3.00;2.90;;;15.70;1.00;;;;;;6308265;28;20236;-56
2022/06/22 02:33:17;;;;;;;3.13;2.93;;;15.60;1.00;;;;;;6325539;27;20435;-55
2022/06/22 02:36:22;;;;;;;3.20;3.00;;;15.60;1.00;;;;;;6333887;28;20330;-56
2022/06/22 02:39:38;;;;;;;3.00;2.90;;;15.60;1.00;;;;;;6313939;28;20289;-56
2022/06/22 02:46:03;;;;;;;3.77;3.40;;;15.50;1.00;;;;;;6319239;28;20740;-54
2022/06/22 02:49:13;;;;;;;3.30;3.20;;;15.60;1.00;;;;;;6331928;27;20262;-57
2022/06/22 02:52:17;;;;;;;2.57;2.47;;;15.50;1.00;;;;;;6340230;27;20755;-56
2022/06/22 02:55:23;;;;;;;2.80;2.60;;;15.50;1.00;;;;;;6341961;27;20277;-56
2022/06/22 02:58:30;;;;;;;2.97;2.87;;;15.50;1.00;;;;;;6327542;28;20241;-56
2022/06/22 03:01:35;;;;;;;2.77;2.77;;;15.40;1.00;;;;;;6308120;28;20621;-56
2022/06/22 03:04:42;;;;;;;2.97;2.87;;;15.40;1.00;;;;;;6328454;28;20232;-55
2022/06/22 03:07:49;;;;;;;2.87;2.70;;;15.40;1.00;;;;;;6325508;28;20279;-53
2022/06/22 03:10:58;;;;;;;2.80;2.70;;;15.30;1.00;;;;;;6328345;28;20371;-54
2022/06/22 03:14:09;;;;;;;3.53;3.43;;;15.30;1.00;;;;;;6308839;28;20760;-54
2022/06/22 03:17:15;;;;;;;3.27;3.17;;;15.30;1.00;;;;;;6307071;28;20324;-54
2022/06/22 03:20:26;;;;;;;3.53;3.43;;;15.30;1.00;;;;;;6308143;28;20233;-56
2022/06/22 03:23:43;;;;;;;3.23;3.13;;;15.30;1.00;;;;;;6306566;28;20285;-56
2022/06/22 03:26:56;;;;;;;3.30;3.20;;;15.40;1.00;;;;;;6307970;28;20322;-56
2022/06/22 03:30:02;;;;;;;3.30;3.20;;;15.30;1.00;;;;;;6308957;28;20720;-54
2022/06/22 03:33:09;;;;;;;3.40;3.30;;;15.30;1.00;;;;;;6308179;28;20243;-56
2022/06/22 03:36:19;;;;;;;3.20;3.10;;;15.40;1.00;;;;;;6324691;28;20386;-56
2022/06/22 03:39:27;;;;;;;3.60;3.40;;;15.40;1.00;;;;;;6329683;27;20235;-54
2022/06/22 03:42:36;;;;;;;4.23;3.93;;;15.40;1.00;;;;;;6340014;27;20228;-54
2022/06/22 03:45:44;;;;;;;3.60;3.43;;;15.50;1.00;;;;;;6333071;27;20228;-54
2022/06/22 03:48:59;;;;;;;3.53;3.33;;;15.50;1.00;;;;;;6332705;27;20691;-55
2022/06/22 03:52:11;;;;;;;3.50;3.33;;;15.50;1.00;;;;;;6338754;27;20324;-54
2022/06/22 03:55:21;;;;;;;3.03;2.93;;;15.50;1.00;;;;;;6337717;27;20245;-55
2022/06/22 03:58:25;;;;;;;3.40;3.20;;;15.60;1.00;;;;;;6324863;27;20323;-55
2022/06/22 04:01:28;;;;;;;2.97;2.87;;;15.60;1.00;;;;;;6328990;27;20725;-56
2022/06/22 04:04:32;;;;;;;3.07;2.97;;;15.60;1.00;;;;;;6329676;27;20315;-56
2022/06/22 04:07:40;;;;;;;2.90;2.90;;;15.70;1.00;;;;;;6331706;27;20232;-55
2022/06/22 04:10:51;;;;;;;3.30;3.10;;;15.70;1.00;;;;;;6340170;27;20388;-55
2022/06/22 04:14:01;;;;;;;3.90;3.77;;;15.70;1.00;;;;;;6320598;27;20306;-56
2022/06/22 04:17:10;;;;;;;3.97;3.77;;;15.80;1.00;;;;;;6321840;27;20288;-54
2022/06/22 04:20:19;;;;;;;4.07;3.70;;;15.80;1.00;;;;;;6330791;28;20754;-55
2022/06/22 04:23:30;;;;;;;3.90;3.50;;;15.90;1.00;;;;;;6325345;28;20236;-54
2022/06/22 04:26:37;;;;;;;3.50;3.30;;;15.90;1.00;;;;;;6328740;28;20252;-54
2022/06/22 04:29:45;;;;;;;4.17;3.90;;;15.90;1.00;;;;;;6339669;27;20598;-56
2022/06/22 04:32:56;;;;;;;3.87;3.57;;;16.00;1.00;;;;;;6335334;27;20959;-55
2022/06/22 04:36:04;;;;;;;3.90;3.60;;;16.00;1.00;;;;;;6330888;27;20243;-55
2022/06/22 04:39:15;;;;;;;3.70;3.60;;;16.10;1.00;;;;;;6336381;27;20610;-48
2022/06/22 04:42:18;;;;;;;3.83;3.53;;;16.10;1.00;;;;;;6330152;28;20274;-55
2022/06/22 04:45:28;;;;;;;3.13;3.03;;;16.20;1.00;;;;;;6330776;27;20527;-56
2022/06/22 04:48:38;;;;;;;5.90;3.70;;;16.30;1.00;;;;;;6344342;28;20240;-55
2022/06/22 04:51:45;;;;;;;3.40;3.20;;;16.40;1.00;;;;;;6328164;28;20476;-55
2022/06/22 04:54:54;;;;;;;3.77;3.47;;;16.50;1.00;;;;;;6323102;28;20383;-54
2022/06/22 04:58:02;;;;;;;4.00;3.73;;;16.70;1.00;;;;;;6313145;28;20619;-55
2022/06/22 05:01:06;;;;;;;3.60;3.40;;;17.00;1.00;;;;;;6322898;28;20232;-54
2022/06/22 05:04:14;;;;;;;4.47;3.90;;;17.20;1.00;;;;;;6345225;28;20319;-54
2022/06/22 05:07:29;;;;;;;5.10;4.40;;;17.60;1.00;;;;;;6328354;28;20246;-54
2022/06/22 05:10:41;;;;;;;4.30;4.00;;;17.90;1.00;;;;;;6325567;28;20315;-56
2022/06/22 05:13:48;;;;;;;4.37;3.97;;;18.30;1.00;;;;;;6335764;28;20248;-54
2022/06/22 05:16:56;;;;;;;4.23;3.93;;;18.80;1.00;;;;;;6331562;28;20232;-55
2022/06/22 05:20:04;;;;;;;4.33;3.97;;;19.20;1.00;;;;;;6326170;28;20255;-55
2022/06/22 05:23:09;;;;;;;4.97;4.37;;;19.60;1.00;;;;;;6330100;28;20242;-53
2022/06/22 05:26:18;;;;;;;4.00;3.80;;;19.90;1.00;;;;;;6329135;27;20315;-51
2022/06/22 05:29:27;;;;;;;4.13;3.83;;;20.20;1.00;;;;;;6333573;28;20322;-55
2022/06/22 05:32:33;;;;;;;4.33;4.03;;;20.50;1.00;;;;;;6336283;27;20665;-56
2022/06/22 05:35:41;;;;;;;4.37;4.00;;;20.90;1.00;;;;;;6329097;27;20240;-55
2022/06/22 05:38:47;;;;;;;4.73;3.77;;;21.30;1.00;;;;;;6334299;27;20520;-55
2022/06/22 05:41:53;;;;;;;3.90;3.60;;;21.50;1.00;;;;;;6336970;27;20382;-55
2022/06/22 05:44:59;;;;;;;4.17;3.90;;;21.80;1.00;;;;;;6330139;27;20355;-54
2022/06/22 05:48:02;;;;;;;6.03;4.10;;;22.10;1.00;;;;;;6337566;27;20329;-54
2022/06/22 05:51:17;;;;;;;4.57;3.87;;;22.40;1.00;;;;;;6352100;27;20284;-55
2022/06/22 05:54:26;;;;;;;5.47;3.93;;;22.60;1.00;;;;;;6325301;27;20547;-54
2022/06/22 05:57:37;;;;;;;4.23;3.90;;;22.80;1.00;;;;;;6337989;27;20354;-56
2022/06/22 06:00:44;;;;;;;4.80;3.90;;;23.10;1.00;;;;;;6334804;28;20235;-54
2022/06/22 06:03:53;;;;;;;4.03;3.80;;;23.40;1.00;;;;;;6327288;27;20913;-54
2022/06/22 06:07:01;;;;;;;6.03;4.17;;;23.50;1.00;;;;;;6343649;27;20240;-55
2022/06/22 06:10:12;;;;;;;4.87;4.23;;;23.70;1.00;;;;;;6315418;27;20674;-55
2022/06/22 06:13:23;;;;;;;6.37;4.07;;;24.00;1.00;;;;;;6332653;27;20307;-55
2022/06/22 06:16:43;;;;;;;4.47;4.17;;;24.10;1.00;;;;;;6340081;27;20232;-55
2022/06/22 06:19:51;;;;;;;6.90;4.10;;;24.40;1.00;;;;;;6328991;27;20525;-55
2022/06/22 06:23:01;;;;;;;4.47;4.03;;;24.60;1.00;;;;;;6332026;27;20394;-56
2022/06/22 06:29:38;;;;;;;7.27;4.60;;;25.00;1.00;;;;;;6332964;27;20718;-54
2022/06/22 06:32:48;;;;;;;7.17;3.70;;;25.40;1.00;;;;;;6332044;27;20239;-53
2022/06/22 06:35:56;;;;;;;6.70;3.57;;;25.70;1.00;;;;;;6336756;27;20746;-54
2022/06/22 06:39:03;;;;;;;5.67;4.30;;;26.20;1.00;;;;;;6329907;27;20236;-54
2022/06/22 06:42:19;;;;;;;5.83;3.63;;;26.70;1.00;;;;;;6338895;27;20352;-54
2022/06/22 06:45:28;;;;;;;5.43;3.70;;;26.80;1.00;;;;;;6332613;27;20287;-54
2022/06/22 06:48:33;;;;;;;4.67;3.30;;;27.10;1.00;;;;;;6330730;27;20331;-54
2022/06/22 06:51:39;;;;;;;7.67;3.30;;;27.20;1.00;;;;;;6322093;27;20291;-54
2022/06/22 06:54:50;;;;;;;7.60;3.67;;;27.30;1.00;;;;;;6344848;27;20322;-52
2022/06/22 06:58:07;;;;;;;7.27;3.37;;;27.50;1.00;;;;;;6327010;28;20279;-55
2022/06/22 07:01:19;;;;;;;6.53;2.80;;;27.40;1.00;;;;;;6328467;27;20288;-55
2022/06/22 07:04:28;;;;;;;3.70;2.77;;;27.40;1.00;;;;;;6340737;27;20612;-54
2022/06/22 07:07:38;;;;;;;2.60;2.10;;;27.50;1.00;;;;;;6327959;27;20730;-55
2022/06/22 07:10:45;;;;;;;3.10;2.70;;;27.60;1.00;;;;;;6344400;27;20274;-56
2022/06/22 07:13:52;;;;;;;3.20;2.63;;;27.70;1.00;;;;;;6338366;27;20403;-55
2022/06/22 07:17:06;;;;;;;4.90;2.70;;;27.50;1.00;;;;;;6318907;27;20366;-55
2022/06/22 07:20:17;;;;;;;3.00;2.67;;;27.40;1.00;;;;;;6322264;28;20731;-55
2022/06/22 07:23:23;;;;;;;4.30;2.40;;;27.50;1.00;;;;;;6323823;28;20322;-55
2022/06/22 07:26:38;;;;;;;5.60;2.60;;;27.40;1.00;;;;;;6333357;28;20422;-54
2022/06/22 07:29:44;;;;;;;4.03;2.57;;;27.40;1.00;;;;;;6332567;28;20232;-55
2022/06/22 07:32:55;;;;;;;8.27;2.73;;;27.40;1.00;;;;;;6329013;28;20258;-54
2022/06/22 07:36:03;;;;;;;3.13;2.83;;;27.60;1.00;;;;;;6329526;28;20228;-55
2022/06/22 07:39:13;;;;;;;2.93;2.67;;;27.20;1.00;;;;;;6328611;28;20425;-55
2022/06/22 07:42:16;;;;;;;3.33;2.47;;;27.00;1.00;;;;;;6268524;28;20241;-57
2022/06/22 07:45:24;;;;;;;2.63;2.43;;;26.80;1.00;;;;;;6330943;28;20638;-54
2022/06/22 07:48:31;;;;;;;2.40;2.30;;;26.80;1.00;;;;;;6334605;27;20236;-54
2022/06/22 07:51:38;;;;;;;2.93;2.73;;;26.60;1.00;;;;;;6329269;28;20479;-54
2022/06/22 07:54:45;;;;;;;3.63;2.60;;;26.60;1.00;;;;;;6325643;28;20650;-54
2022/06/22 07:58:15;;;;;;;2.83;2.60;;;26.30;1.00;;;;;;6318344;27;20250;-54
2022/06/22 08:01:25;;;;;;;4.03;3.10;;;26.20;1.00;;;;;;6330655;28;20305;-55
2022/06/22 08:04:35;;;;;;;4.43;2.87;;;25.90;1.00;;;;;;6327131;28;20244;-53
2022/06/22 08:07:45;;;;;;;3.47;3.17;;;25.60;1.00;;;;;;6324397;28;20228;-54
2022/06/22 08:10:56;;;;;;;2.93;2.73;;;25.60;1.00;;;;;;6331001;28;20220;-55
2022/06/22 08:14:04;;;;;;;3.00;2.77;;;25.50;1.00;;;;;;6327038;28;20274;-56
2022/06/22 08:17:13;;;;;;;2.70;2.60;;;25.40;1.00;;;;;;6330189;28;20391;-54
2022/06/22 08:20:26;;;;;;;3.53;3.00;;;25.30;1.00;;;;;;6328331;28;20531;-54
2022/06/22 08:23:34;;;;;;;4.63;2.73;;;25.20;1.00;;;;;;6327784;28;20240;-54
2022/06/22 08:26:37;;;;;;;2.77;2.57;;;25.30;1.00;;;;;;6331480;28;20290;-57
2022/06/22 08:29:41;;;;;;;2.70;2.07;;;25.30;1.00;;;;;;6326121;28;20235;-58
2022/06/22 08:32:50;;;;;;;4.83;2.63;;;25.10;1.00;;;;;;6331492;28;20648;-54
2022/06/22 08:35:59;;;;;;;2.90;2.70;;;25.20;1.00;;;;;;6330926;28;20334;-55
2022/06/22 08:39:07;;;;;;;2.87;2.67;;;25.20;1.00;;;;;;6327655;28;20228;-55
2022/06/22 08:42:21;;;;;;;4.47;3.10;;;25.20;1.00;;;;;;6323852;28;20713;-54
2022/06/22 08:45:38;;;;;;;3.20;3.10;;;25.10;1.00;;;;;;6331042;28;20388;-55
2022/06/22 08:49:08;;;;;;;3.23;2.97;;;25.30;1.00;;;;;;6330345;28;20232;-54
2022/06/22 08:52:29;;;;;;;2.40;2.30;;;25.60;1.00;;;;;;6318093;28;20239;-54
2022/06/22 08:56:18;;;;;;;3.43;2.30;;;25.90;1.00;;;;;;6331929;28;20228;-54
2022/06/22 08:59:43;;;;;;;2.80;2.43;;;26.10;1.00;;;;;;6324192;28;20232;-55
2022/06/22 09:03:30;;;;;;;2.40;2.30;;;26.30;1.00;;;;;;6331577;28;20276;-57
2022/06/22 09:07:00;;;;;;;2.77;2.57;;;25.90;1.00;;;;;;6305022;28;20297;-53
2022/06/22 09:10:35;;;;;;;2.90;2.23;;;25.90;1.00;;;;;;6329452;28;20235;-55
2022/06/22 09:14:21;;;;;;;2.60;2.50;;;26.00;1.00;;;;;;6335538;28;20866;-55
2022/06/22 09:18:00;;;;;;;2.37;2.17;;;25.90;1.00;;;;;;6245440;28;20242;-54
2022/06/22 09:21:17;;;;;;;2.00;2.00;;;26.10;1.00;;;;;;6324017;28;20328;-55
2022/06/22 09:24:24;;;;;;;2.53;2.43;;;25.90;1.00;;;;;;6326752;28;20716;-54
2022/06/22 09:27:40;;;;;;;2.23;2.10;;;25.90;1.00;;;;;;6333738;27;20381;-54
2022/06/22 09:31:05;;;;;;;2.90;2.53;;;25.90;1.00;;;;;;6335152;28;20647;-54
2022/06/22 09:34:19;;;;;;;2.47;2.27;;;25.90;1.00;;;;;;6332169;28;20950;-54
2022/06/22 09:37:57;;;;;;;3.63;2.60;;;25.80;1.00;;;;;;6324725;28;20796;-54
2022/06/22 09:41:06;;;;;;;2.90;2.63;;;25.90;1.00;;;;;;6334937;28;20767;-55
2022/06/22 09:44:39;;;;;;;4.53;2.80;;;25.90;1.00;;;;;;6335345;28;20664;-54
2022/06/22 09:48:02;;;;;;;3.17;2.27;;;25.90;1.00;;;;;;6324873;28;20327;-54
2022/06/22 09:51:28;;;;;;;2.90;2.70;;;26.10;1.00;;;;;;6327406;28;20232;-55
2022/06/22 09:59:10;;;;;;;3.07;2.60;;;26.50;1.00;;;;;;6326589;28;20276;-54
2022/06/22 10:02:51;;;;;;;9.40;3.30;;;26.60;1.00;;;;;;6205848;28;20672;-54
2022/06/22 10:06:17;;;;;;;3.87;3.37;;;26.60;1.00;;;;;;6223246;28;20235;-55
2022/06/22 10:09:40;;;;;;;2.43;2.27;;;26.40;1.00;;;;;;6330336;28;20619;-54
2022/06/22 10:13:29;;;;;;;2.10;2.10;;;26.40;1.00;;;;;;6333637;28;20283;-56
2022/06/22 10:17:04;;;;;;;3.10;2.47;;;26.30;1.00;;;;;;6319596;28;20406;-56
2022/06/22 10:20:38;;;;;;;2.47;2.30;;;26.50;1.00;;;;;;6299991;28;20232;-49
2022/06/22 10:24:04;;;;;;;2.60;2.50;;;26.70;1.00;;;;;;6327152;28;20223;-54
2022/06/22 10:27:35;;;;;;;2.00;1.97;;;26.70;1.00;;;;;;6328896;28;20474;-55
2022/06/22 10:30:51;;;;;;;3.00;2.13;;;26.50;1.00;;;;;;6332345;28;20239;-55
2022/06/22 10:34:22;;;;;;;4.20;2.30;;;26.50;1.00;;;;;;6331850;27;20338;-55
2022/06/22 10:37:52;;;;;;;4.83;2.13;;;26.60;1.00;;;;;;6329396;28;20320;-54
2022/06/22 10:48:41;;;;;;;4.20;2.27;;;26.50;1.00;;;;;;6321261;28;20235;-55
2022/06/22 10:52:17;;;;;;;2.50;2.40;;;26.50;1.00;;;;;;6315787;28;20311;-55
2022/06/22 10:55:45;;;;;;;2.67;2.33;;;26.30;1.00;;;;;;6310873;28;20310;-54
2022/06/22 10:59:13;;;;;;;2.33;2.23;;;26.40;1.00;;;;;;6331197;27;20228;-55
2022/06/22 11:03:03;;;;;;;2.70;2.57;;;26.50;1.00;;;;;;6317939;27;20225;-54
2022/06/22 11:06:45;;;;;;;2.40;2.30;;;26.60;1.00;;;;;;6328989;28;20524;-54
2022/06/22 11:10:17;;;;;;;2.33;2.23;;;26.70;1.00;;;;;;6329885;28;20470;-54
2022/06/22 11:13:52;;;;;;;2.27;2.10;;;26.80;1.00;;;;;;6320550;28;20327;-54
2022/06/22 11:17:08;;;;;;;2.30;2.10;;;26.80;1.00;;;;;;6331964;28;20252;-54
2022/06/22 11:20:37;;;;;;;2.60;2.40;;;26.80;1.00;;;;;;6326828;28;20736;-54
2022/06/22 11:24:08;;;;;;;2.60;2.50;;;26.80;1.00;;;;;;6328034;27;20294;-55
2022/06/22 11:30:53;;;;;;;3.03;2.80;;;26.90;1.00;;;;;;6331386;28;20660;-55
2022/06/22 11:34:13;;;;;;;2.87;2.40;;;26.90;1.00;;;;;;6331463;28;20376;-54
2022/06/22 11:37:26;;;;;;;4.77;2.57;;;27.00;1.00;;;;;;6328973;27;20720;-54
2022/06/22 11:41:02;;;;;;;2.17;2.10;;;27.00;1.00;;;;;;6331310;28;20404;-55
2022/06/22 11:44:20;;;;;;;2.80;2.40;;;27.00;1.00;;;;;;6333101;28;20389;-54
2022/06/22 11:47:34;;;;;;;2.00;1.90;;;26.80;1.00;;;;;;6307954;28;20248;-56
2022/06/22 11:50:56;;;;;;;2.40;2.20;;;26.70;1.00;;;;;;6333148;28;20228;-55
2022/06/22 11:54:20;;;;;;;2.20;2.10;;;26.90;1.00;;;;;;6330259;28;20270;-55
2022/06/22 11:57:58;;;;;;;2.63;2.17;;;26.90;1.00;;;;;;6324328;27;20232;-54
2022/06/22 12:01:26;;;;;;;2.67;2.50;;;27.00;1.00;;;;;;6344457;27;20240;-53
2022/06/22 12:04:57;;;;;;;2.90;2.40;;;27.20;1.00;;;;;;6339934;27;20296;-53
2022/06/22 12:08:30;;;;;;;2.50;2.30;;;27.20;1.00;;;;;;6296145;27;20227;-53
2022/06/22 12:11:46;;;;;;;2.47;2.37;;;27.30;1.00;;;;;;6329711;27;20838;-55
2022/06/22 12:15:09;;;;;;;3.43;2.43;;;27.40;1.00;;;;;;6334617;27;20235;-56
2022/06/22 12:18:36;;;;;;;2.83;2.63;;;27.40;1.00;;;;;;6326717;27;20494;-53
2022/06/22 12:22:01;;;;;;;3.13;2.13;;;27.60;1.00;;;;;;6328587;27;20231;-54
2022/06/22 12:25:22;;;;;;;2.37;2.27;;;27.60;1.00;;;;;;6330883;28;20697;-53
2022/06/22 12:28:47;;;;;;;3.63;2.40;;;27.70;1.00;;;;;;6328005;28;20290;-53
2022/06/22 12:31:54;;;;;;;2.60;2.40;;;27.80;1.00;;;;;;6331540;27;20233;-54
2022/06/22 12:35:20;;;;;;;2.40;2.30;;;27.90;1.00;;;;;;6332263;27;20229;-54
2022/06/22 12:38:34;;;;;;;2.53;2.43;;;28.10;1.00;;;;;;6330339;27;20251;-55
2022/06/22 12:42:25;;;;;;;2.70;2.57;;;28.10;1.00;;;;;;6329852;28;20236;-55
2022/06/22 12:45:47;;;;;;;2.17;2.07;;;28.10;1.00;;;;;;6320915;28;20507;-55
2022/06/22 12:49:18;;;;;;;2.80;2.20;;;27.80;1.00;;;;;;6301730;28;20266;-54
2022/06/22 12:52:29;;;;;;;7.83;2.33;;;27.90;1.00;;;;;;6335521;27;20234;-54
2022/06/22 12:55:48;;;;;;;3.00;2.17;;;27.80;1.00;;;;;;6336376;28;20715;-55
2022/06/22 12:58:57;;;;;;;3.73;2.10;;;27.70;1.00;;;;;;6343288;28;20231;-55
2022/06/22 13:02:03;;;;;;;2.90;2.27;;;27.80;1.00;;;;;;6333731;28;20373;-48
2022/06/22 13:05:10;;;;;;;2.10;2.10;;;27.70;1.00;;;;;;6339468;28;20459;-53
2022/06/22 13:08:20;;;;;;;2.33;2.23;;;27.80;1.00;;;;;;6328906;28;20623;-54
2022/06/22 13:11:27;;;;;;;2.30;2.20;;;27.80;1.00;;;;;;6333360;28;20247;-52
2022/06/22 13:14:38;;;;;;;2.83;2.37;;;27.80;1.00;;;;;;6321757;28;20368;-54
2022/06/22 13:17:48;;;;;;;2.33;2.20;;;28.00;1.00;;;;;;6297619;28;20388;-52
2022/06/22 13:20:59;;;;;;;2.37;2.17;;;28.10;1.00;;;;;;6328406;28;20254;-53
2022/06/22 13:24:07;;;;;;;2.03;1.93;;;28.10;1.00;;;;;;6325430;28;20228;-54
2022/06/22 13:27:25;;;;;;;3.07;2.30;;;28.10;1.00;;;;;;6333119;28;20263;-55
2022/06/22 13:30:35;;;;;;;2.20;2.10;;;28.10;1.00;;;;;;6334754;28;20228;-53
2022/06/22 13:33:46;;;;;;;3.07;2.43;;;28.20;1.00;;;;;;6333170;28;20308;-53
2022/06/22 13:37:01;;;;;;;2.37;2.17;;;28.20;1.00;;;;;;6326644;28;20250;-54
2022/06/22 13:40:26;;;;;;;2.40;2.20;;;28.10;1.00;;;;;;6336721;28;20759;-54
2022/06/22 13:44:14;;;;;;;2.13;2.03;;;28.20;1.00;;;;;;6300477;28;20270;-52
2022/06/22 13:47:44;;;;;;;3.07;2.77;;;28.20;1.00;;;;;;6325647;27;20239;-53
2022/06/22 13:51:44;;;;;;;2.33;2.00;;;28.30;1.00;;;;;;6333786;27;20230;-54
2022/06/22 13:55:20;;;;;;;2.27;2.17;;;28.30;1.00;;;;;;6337519;27;20232;-54
2022/06/22 13:58:29;;;;;;;2.47;2.37;;;28.30;1.00;;;;;;6347288;27;20242;-53
2022/06/22 14:01:37;;;;;;;2.40;2.30;;;28.40;1.00;;;;;;6335614;27;22082;-53
2022/06/22 14:04:45;;;;;;;2.13;2.03;;;28.40;1.00;;;;;;6330483;27;20244;-54
2022/06/22 14:07:54;;;;;;;2.40;2.27;;;28.50;1.00;;;;;;6323952;28;20808;-55
2022/06/22 14:11:04;;;;;;;2.40;2.30;;;28.40;1.00;;;;;;6342044;27;20231;-54
2022/06/22 14:14:20;;;;;;;2.13;2.03;;;28.40;1.00;;;;;;6334502;27;20289;-62
2022/06/22 14:17:29;;;;;;;4.27;2.07;;;28.50;1.00;;;;;;6329379;27;20377;-52
2022/06/22 14:20:43;;;;;;;2.40;2.30;;;28.40;1.00;;;;;;6347679;27;20232;-53
2022/06/22 14:23:47;;;;;;;3.23;2.43;;;28.50;1.00;;;;;;6322700;28;20605;-55
2022/06/22 14:27:16;;;;;;;2.17;2.08;;;28.50;1.00;;;;;;6314095;28;20847;-54
2022/06/22 14:30:24;;;;;;;6.07;2.43;;;28.50;1.00;;;;;;6325910;28;20262;-58
2022/06/22 14:33:54;;;;;;;2.50;2.30;;;28.50;1.00;;;;;;6327089;28;20362;-57
2022/06/22 14:37:23;;;;;;;3.20;2.00;;;28.50;1.00;;;;;;6295831;28;20267;-55
2022/06/22 14:40:35;;;;;;;4.03;2.47;;;28.60;1.00;;;;;;6309963;28;20787;-55
2022/06/22 14:43:48;;;;;;;2.67;2.47;;;28.50;1.00;;;;;;6325869;27;20231;-55
2022/06/22 14:47:21;;;;;;;2.43;2.40;;;28.50;1.00;;;;;;6316325;28;20551;-55
2022/06/22 14:50:29;;;;;;;2.53;2.43;;;28.40;1.00;;;;;;6328384;28;20334;-55
2022/06/22 14:53:45;;;;;;;2.37;2.27;;;28.20;1.00;;;;;;6324184;27;20601;-53
2022/06/22 14:56:56;;;;;;;2.50;2.30;;;28.00;1.00;;;;;;6328493;28;20230;-54
2022/06/22 15:00:19;;;;;;;1.97;1.87;;;28.10;1.00;;;;;;6332585;28;20353;-55
2022/06/22 15:03:33;;;;;;;2.40;2.20;;;28.10;1.00;;;;;;6325086;28;20270;-54
2022/06/22 15:06:58;;;;;;;2.60;2.40;;;28.10;1.00;;;;;;6326867;28;20822;-53
2022/06/22 15:10:09;;;;;;;2.13;1.93;;;28.20;1.00;;;;;;6332657;28;20251;-54
2022/06/22 15:13:18;;;;;;;3.50;2.13;;;28.30;1.00;;;;;;6326728;28;20526;-55
2022/06/22 15:16:27;;;;;;;2.07;1.90;;;28.20;1.00;;;;;;6332027;28;20228;-55
2022/06/22 15:19:33;;;;;;;2.47;2.30;;;28.20;1.00;;;;;;6330416;28;20489;-55
2022/06/22 15:22:51;;;;;;;2.63;2.53;;;28.10;1.00;;;;;;6330330;28;20220;-55
2022/06/22 15:26:24;;;;;;;2.60;2.40;;;28.10;1.00;;;;;;6322179;28;20236;-57
2022/06/22 15:29:31;;;;;;;2.57;2.13;;;28.20;1.00;;;;;;6327735;28;20710;-55
2022/06/22 15:32:37;;;;;;;2.90;2.57;;;28.20;1.00;;;;;;6323029;28;20409;-56
2022/06/22 15:35:49;;;;;;;2.13;2.03;;;28.30;1.00;;;;;;6329140;28;20371;-56
2022/06/22 15:38:58;;;;;;;3.40;2.30;;;28.30;1.00;;;;;;6327397;28;20240;-54
2022/06/22 15:42:07;;;;;;;2.20;2.20;;;28.40;1.00;;;;;;6327143;28;20711;-55
2022/06/22 15:45:26;;;;;;;4.53;3.47;;;28.30;1.00;;;;;;6331349;28;20331;-54
2022/06/22 15:48:55;;;;;;;2.53;2.37;;;28.40;1.00;;;;;;6325391;28;20244;-54
2022/06/22 15:52:11;;;;;;;2.07;2.00;;;28.40;1.00;;;;;;6326887;28;20372;-50
2022/06/22 15:55:29;;;;;;;1.93;1.83;;;28.40;1.00;;;;;;6330596;28;20240;-56
2022/06/22 15:58:40;;;;;;;3.97;2.17;;;28.30;1.00;;;;;;6311307;28;20295;-55
2022/06/22 16:01:52;;;;;;;2.80;2.13;;;28.30;1.00;;;;;;6330199;28;20262;-56
2022/06/22 16:05:02;;;;;;;2.10;2.00;;;28.20;1.00;;;;;;6331483;28;20319;-54
2022/06/22 16:08:21;;;;;;;2.20;2.00;;;28.10;1.00;;;;;;6324764;28;20244;-55
2022/06/22 16:15:06;;;;;;;2.40;2.30;;;28.00;1.00;;;;;;6297967;28;20220;-56
2022/06/22 16:18:16;;;;;;;2.20;2.20;;;27.90;1.00;;;;;;6329559;28;20653;-58
2022/06/22 16:21:23;;;;;;;2.00;1.80;;;27.90;1.00;;;;;;6312431;28;20711;-53
2022/06/22 16:24:42;;;;;;;2.17;2.07;;;27.90;1.00;;;;;;6320414;28;20327;-54
2022/06/22 16:27:54;;;;;;;2.00;1.90;;;27.80;1.00;;;;;;6329587;28;20469;-56
2022/06/22 16:31:12;;;;;;;2.00;2.00;;;27.80;1.00;;;;;;6325005;28;20246;-54
2022/06/22 16:34:23;;;;;;;2.30;2.20;;;27.70;1.00;;;;;;6329703;28;20244;-54
2022/06/22 16:37:31;;;;;;;2.53;2.33;;;27.60;1.00;;;;;;6325982;28;20398;-54
2022/06/22 16:40:45;;;;;;;2.20;2.20;;;27.50;1.00;;;;;;6326016;28;20277;-55
2022/06/22 16:44:16;;;;;;;2.20;2.13;;;27.50;1.00;;;;;;6330479;28;20606;-56
2022/06/22 16:47:19;;;;;;;2.47;2.10;;;27.40;1.00;;;;;;6323360;28;20841;-54
2022/06/22 16:50:43;;;;;;;2.70;2.13;;;27.30;1.00;;;;;;6328244;28;20285;-55
2022/06/22 16:53:51;;;;;;;2.20;2.10;;;27.20;1.00;;;;;;6326812;28;20600;-57
2022/06/22 16:57:00;;;;;;;2.10;2.00;;;27.10;1.00;;;;;;6327783;28;20236;-54
2022/06/22 17:00:06;;;;;;;2.07;2.07;;;27.00;1.00;;;;;;6321824;28;20228;-55
2022/06/22 17:03:18;;;;;;;2.37;2.27;;;27.00;1.00;;;;;;6327198;28;20772;-55
2022/06/22 17:06:27;;;;;;;2.50;2.40;;;26.90;1.00;;;;;;6325511;28;20316;-55
2022/06/22 17:09:36;;;;;;;2.40;2.30;;;26.80;1.00;;;;;;6325757;28;20386;-55
2022/06/22 17:12:56;;;;;;;2.40;2.23;;;26.70;1.00;;;;;;6329212;28;20309;-56
2022/06/22 17:16:10;;;;;;;2.40;2.30;;;26.60;1.00;;;;;;6330057;28;20269;-56
2022/06/22 17:19:21;;;;;;;2.50;2.30;;;26.60;1.00;;;;;;6321450;28;20232;-56
2022/06/22 17:22:33;;;;;;;2.30;2.10;;;26.50;1.00;;;;;;6326309;28;20227;-56
2022/06/22 17:25:44;;;;;;;2.50;2.30;;;26.40;1.00;;;;;;6324654;28;20254;-56
2022/06/22 17:28:55;;;;;;;2.40;2.30;;;26.30;1.00;;;;;;6334061;28;20299;-55
2022/06/22 17:32:01;;;;;;;2.13;2.13;;;26.20;1.00;;;;;;6334291;28;20616;-54